Time;durP1;ratioP1;P1;durP2;ratioP2;P2;SDS_P1;SDS_P2;PMS_P1;PMS_P2;Temp;Humidity;BMP_temperature;BMP_pressure;BME280_temperature;BME280_humidity;BME280_pressure;Samples;Min_cycle;Max_cycle;Signal;HPM_P1;HPM_P2
2022/08/05 00:00:44;;;;;;;5.45;5.00;;;25.50;65.30;;;;;;2105216;28;20059;-74
2022/08/05 00:01:45;;;;;;;5.70;4.97;;;25.50;65.30;;;;;;2105304;28;20027;-75
2022/08/05 00:02:46;;;;;;;5.43;4.93;;;25.50;65.30;;;;;;2105184;28;20081;-74
2022/08/05 00:03:48;;;;;;;5.95;4.97;;;25.40;65.30;;;;;;2096308;28;20075;-74
2022/08/05 00:04:49;;;;;;;5.20;4.80;;;25.40;65.40;;;;;;2096654;28;20067;-74
2022/08/05 00:05:49;;;;;;;5.05;4.65;;;25.40;65.50;;;;;;2096375;28;20396;-74
2022/08/05 00:06:50;;;;;;;5.57;5.00;;;25.40;65.60;;;;;;2096315;28;20024;-75
2022/08/05 00:07:51;;;;;;;5.47;4.97;;;25.40;65.90;;;;;;2105156;28;20028;-74
2022/08/05 00:08:51;;;;;;;5.50;5.00;;;25.40;66.10;;;;;;2105322;28;20031;-74
2022/08/05 00:09:52;;;;;;;5.70;5.20;;;25.30;66.10;;;;;;2105326;28;20031;-74
2022/08/05 00:10:52;;;;;;;5.93;5.40;;;25.40;66.30;;;;;;2106043;28;20031;-74
2022/08/05 00:11:53;;;;;;;5.43;4.93;;;25.30;66.30;;;;;;2105896;28;20063;-74
2022/08/05 00:12:54;;;;;;;5.80;5.30;;;25.30;66.20;;;;;;2105964;28;20032;-74
2022/08/05 00:13:54;;;;;;;6.15;4.82;;;25.30;66.30;;;;;;2105943;28;20039;-74
2022/08/05 00:14:55;;;;;;;5.63;5.10;;;25.30;66.30;;;;;;2105880;28;20028;-75
2022/08/05 00:15:56;;;;;;;5.65;5.07;;;25.30;66.30;;;;;;2105736;28;20500;-74
2022/08/05 00:16:57;;;;;;;5.47;4.97;;;25.30;66.30;;;;;;2105693;28;20028;-75
2022/08/05 00:17:57;;;;;;;5.50;5.00;;;25.30;66.30;;;;;;2105626;28;20351;-75
2022/08/05 00:18:58;;;;;;;5.60;4.90;;;25.20;66.30;;;;;;2105746;28;20512;-75
2022/08/05 00:19:58;;;;;;;5.93;5.32;;;25.20;66.30;;;;;;2105803;28;20541;-75
2022/08/05 00:20:59;;;;;;;5.40;4.90;;;25.20;66.40;;;;;;2105802;28;20035;-75
2022/08/05 00:22:01;;;;;;;5.97;5.38;;;25.20;66.40;;;;;;2105666;28;20118;-74
2022/08/05 00:23:02;;;;;;;5.97;5.18;;;25.20;66.40;;;;;;2096838;28;20055;-75
2022/08/05 00:24:03;;;;;;;5.35;4.88;;;25.20;66.60;;;;;;2096759;28;20016;-75
2022/08/05 00:25:04;;;;;;;6.50;5.13;;;25.20;66.70;;;;;;2105735;28;20033;-74
2022/08/05 00:26:06;;;;;;;5.57;5.05;;;25.10;66.80;;;;;;2105742;28;20051;-75
2022/08/05 00:27:07;;;;;;;5.45;4.95;;;25.10;66.80;;;;;;2105646;28;20027;-76
2022/08/05 00:28:07;;;;;;;5.40;5.00;;;25.10;66.90;;;;;;2105468;28;20059;-74
2022/08/05 00:29:08;;;;;;;5.63;5.13;;;25.10;66.90;;;;;;2104988;28;20032;-74
2022/08/05 00:30:09;;;;;;;5.40;5.00;;;25.10;66.90;;;;;;2105244;28;20028;-74
2022/08/05 00:31:10;;;;;;;5.97;5.30;;;25.10;67.00;;;;;;2105307;28;20036;-75
2022/08/05 00:32:11;;;;;;;5.70;4.93;;;25.10;67.80;;;;;;2096170;28;20024;-75
2022/08/05 00:33:14;;;;;;;5.57;5.03;;;25.00;67.00;;;;;;2087958;28;20037;-75
2022/08/05 00:34:15;;;;;;;5.72;5.18;;;25.00;67.00;;;;;;2088031;28;20032;-74
2022/08/05 00:35:16;;;;;;;6.03;5.28;;;25.00;67.10;;;;;;2105309;28;20513;-75
2022/08/05 00:36:17;;;;;;;5.43;5.00;;;25.00;67.20;;;;;;2105193;28;20028;-74
2022/08/05 00:37:17;;;;;;;5.70;5.20;;;25.00;67.30;;;;;;2105117;28;20092;-75
2022/08/05 00:38:18;;;;;;;5.72;5.20;;;25.00;67.30;;;;;;2104731;28;20024;-74
2022/08/05 00:39:19;;;;;;;6.05;5.55;;;25.00;68.50;;;;;;2105150;28;20032;-74
2022/08/05 00:40:21;;;;;;;5.82;5.32;;;25.00;71.60;;;;;;2105049;28;20073;-75
2022/08/05 00:41:30;;;;;;;5.82;5.30;;;25.00;72.70;;;;;;2105075;28;20028;-74
2022/08/05 00:42:33;;;;;;;7.22;5.25;;;24.90;74.00;;;;;;2105251;28;20440;-74
2022/08/05 00:43:35;;;;;;;6.20;5.68;;;24.90;74.10;;;;;;2105416;28;20082;-72
2022/08/05 00:44:36;;;;;;;5.43;5.03;;;24.90;74.60;;;;;;2105590;28;20493;-75
2022/08/05 00:45:36;;;;;;;7.72;5.05;;;24.90;75.20;;;;;;2105337;28;20038;-75
2022/08/05 00:46:37;;;;;;;5.63;5.13;;;24.90;74.30;;;;;;2105714;28;20028;-74
2022/08/05 00:47:39;;;;;;;5.97;5.38;;;24.80;74.80;;;;;;2105774;28;20055;-76
2022/08/05 00:48:39;;;;;;;6.13;5.50;;;24.80;73.90;;;;;;2104982;28;20012;-75
2022/08/05 00:49:40;;;;;;;5.75;5.25;;;24.80;73.50;;;;;;2104980;28;20040;-75
2022/08/05 00:50:43;;;;;;;5.90;5.40;;;24.80;73.70;;;;;;2104893;28;20027;-74
2022/08/05 00:51:45;;;;;;;6.10;5.50;;;24.70;73.50;;;;;;2104837;28;20135;-74
2022/08/05 00:52:45;;;;;;;5.82;5.30;;;24.70;73.70;;;;;;2104899;28;20056;-74
2022/08/05 00:53:47;;;;;;;6.55;5.95;;;24.70;73.80;;;;;;2104834;28;20070;-74
2022/08/05 00:54:48;;;;;;;6.15;5.57;;;24.70;73.80;;;;;;2104695;28;20035;-74
2022/08/05 00:55:50;;;;;;;6.65;5.80;;;24.60;73.90;;;;;;2104725;28;20508;-74
2022/08/05 00:56:50;;;;;;;6.45;5.72;;;24.60;73.80;;;;;;2104634;28;20057;-74
2022/08/05 00:57:51;;;;;;;6.80;5.60;;;24.60;73.70;;;;;;2104608;28;20128;-74
2022/08/05 00:58:51;;;;;;;6.05;5.30;;;24.60;73.60;;;;;;2104650;28;20425;-74
2022/08/05 00:59:52;;;;;;;6.28;5.68;;;24.60;73.30;;;;;;2104687;28;20113;-74
2022/08/05 01:00:53;;;;;;;6.47;5.88;;;24.60;73.40;;;;;;2095773;28;20624;-74
2022/08/05 01:01:53;;;;;;;7.78;5.70;;;24.60;73.20;;;;;;2095751;28;20494;-74
2022/08/05 01:02:55;;;;;;;6.90;5.70;;;24.50;73.20;;;;;;2104782;28;20070;-74
2022/08/05 01:03:56;;;;;;;5.90;5.35;;;24.50;73.10;;;;;;2104840;28;20095;-74
2022/08/05 01:04:57;;;;;;;5.72;5.32;;;24.50;73.00;;;;;;2104763;28;20351;-74
2022/08/05 01:05:57;;;;;;;5.95;5.35;;;24.50;72.90;;;;;;2104749;28;20064;-74
2022/08/05 01:06:58;;;;;;;6.63;5.50;;;24.50;72.80;;;;;;2095719;28;20037;-73
2022/08/05 01:07:59;;;;;;;5.88;5.38;;;24.50;72.90;;;;;;2095461;28;20033;-73
2022/08/05 01:08:59;;;;;;;6.28;5.68;;;24.50;72.90;;;;;;2095685;28;20056;-74
2022/08/05 01:10:01;;;;;;;5.80;5.30;;;24.40;72.80;;;;;;2104612;28;20818;-74
2022/08/05 01:11:11;;;;;;;6.15;5.60;;;24.40;72.70;;;;;;2104760;28;20027;-73
2022/08/05 01:12:15;;;;;;;5.82;5.32;;;24.40;72.70;;;;;;2095609;28;20037;-74
2022/08/05 01:13:20;;;;;;;6.47;5.57;;;24.40;72.50;;;;;;2096160;28;20032;-73
2022/08/05 01:14:48;;;;;;;5.65;5.00;;;24.40;72.50;;;;;;2104783;28;20437;-73
2022/08/05 01:15:57;;;;;;;6.18;5.68;;;24.40;72.50;;;;;;2104599;28;20097;-73
2022/08/05 01:17:13;;;;;;;6.00;5.50;;;24.30;72.60;;;;;;2104878;28;20423;-74
2022/08/05 01:18:22;;;;;;;5.90;5.40;;;24.30;72.60;;;;;;2104368;28;20440;-73
2022/08/05 01:19:38;;;;;;;5.93;5.22;;;24.30;72.60;;;;;;2104665;28;20032;-73
2022/08/05 01:21:09;;;;;;;5.68;5.18;;;24.30;72.50;;;;;;2104603;28;20028;-72
2022/08/05 01:22:36;;;;;;;5.90;5.40;;;24.30;72.40;;;;;;2104813;28;20054;-72
2022/08/05 01:24:05;;;;;;;5.90;5.30;;;24.30;72.30;;;;;;2104767;28;20036;-71
2022/08/05 01:25:36;;;;;;;6.25;5.30;;;24.30;72.30;;;;;;2104672;28;20016;-72
2022/08/05 01:26:58;;;;;;;5.97;5.38;;;24.30;72.10;;;;;;2095543;28;20029;-71
2022/08/05 01:28:14;;;;;;;6.13;5.50;;;24.30;72.20;;;;;;2098526;28;20016;-71
2022/08/05 01:29:30;;;;;;;6.13;5.60;;;24.30;72.20;;;;;;2104576;28;20032;-72
2022/08/05 01:30:35;;;;;;;6.07;5.47;;;24.30;72.20;;;;;;2104667;28;20062;-73
2022/08/05 01:31:53;;;;;;;6.78;5.57;;;24.30;72.20;;;;;;2104530;28;20024;-72
2022/08/05 01:32:56;;;;;;;6.50;5.30;;;24.30;72.20;;;;;;2104630;28;20024;-73
2022/08/05 01:34:21;;;;;;;5.70;5.13;;;24.30;72.20;;;;;;2104602;28;20035;-73
2022/08/05 01:35:27;;;;;;;5.82;5.32;;;24.30;72.20;;;;;;2104353;28;20027;-72
2022/08/05 01:36:34;;;;;;;5.93;5.32;;;24.30;72.30;;;;;;2095392;28;20024;-72
2022/08/05 01:37:42;;;;;;;5.70;5.20;;;24.30;72.40;;;;;;2087853;28;20029;-72
2022/08/05 01:38:46;;;;;;;6.45;5.30;;;24.20;72.40;;;;;;2088322;28;20033;-71
2022/08/05 01:39:49;;;;;;;6.45;5.40;;;24.20;72.40;;;;;;2095618;28;20039;-71
2022/08/05 01:40:51;;;;;;;6.03;5.43;;;24.20;72.40;;;;;;2087623;28;20020;-72
2022/08/05 01:41:54;;;;;;;5.80;5.30;;;24.20;72.60;;;;;;2095821;28;20016;-72
2022/08/05 01:42:56;;;;;;;6.97;5.30;;;24.20;72.60;;;;;;2104526;28;20039;-73
2022/08/05 01:43:58;;;;;;;5.80;5.30;;;24.20;72.60;;;;;;2104590;28;20016;-72
2022/08/05 01:45:00;;;;;;;5.90;5.40;;;24.20;72.70;;;;;;2104518;28;20474;-72
2022/08/05 01:46:02;;;;;;;5.90;5.30;;;24.10;72.60;;;;;;2086475;28;20459;-72
2022/08/05 01:47:03;;;;;;;6.10;5.50;;;24.10;72.60;;;;;;2087104;28;20648;-73
2022/08/05 01:48:06;;;;;;;6.07;5.47;;;24.10;72.70;;;;;;2104194;28;20145;-72
2022/08/05 01:49:10;;;;;;;5.93;5.32;;;24.10;72.70;;;;;;2104521;28;20106;-73
2022/08/05 01:50:16;;;;;;;6.10;5.50;;;24.10;72.70;;;;;;2104483;28;20046;-73
2022/08/05 01:51:17;;;;;;;6.28;5.68;;;24.10;72.80;;;;;;2104603;28;20038;-73
2022/08/05 01:52:21;;;;;;;5.70;5.20;;;24.10;72.80;;;;;;2095473;28;20029;-72
2022/08/05 01:53:24;;;;;;;5.85;5.35;;;24.10;72.90;;;;;;2087614;28;20475;-73
2022/08/05 01:54:31;;;;;;;5.90;5.40;;;24.00;72.90;;;;;;2095229;28;20043;-71
2022/08/05 01:55:32;;;;;;;6.10;5.50;;;24.10;72.90;;;;;;2096353;28;20035;-72
2022/08/05 01:56:38;;;;;;;5.38;4.97;;;24.00;72.80;;;;;;2104316;28;20035;-72
2022/08/05 01:57:42;;;;;;;6.00;5.40;;;24.00;72.80;;;;;;2104550;28;20034;-73
2022/08/05 01:58:43;;;;;;;6.07;5.47;;;24.00;72.70;;;;;;2104745;28;20020;-73
2022/08/05 01:59:47;;;;;;;6.45;5.50;;;24.00;72.60;;;;;;2104869;28;20027;-71
2022/08/05 02:00:50;;;;;;;5.78;5.28;;;24.00;72.50;;;;;;2095664;28;20020;-73
2022/08/05 02:01:55;;;;;;;6.05;5.55;;;24.00;72.40;;;;;;2087863;28;20033;-72
2022/08/05 02:03:00;;;;;;;5.88;5.38;;;24.00;72.40;;;;;;2096218;28;20035;-73
2022/08/05 02:04:02;;;;;;;6.18;5.68;;;24.00;72.30;;;;;;2104677;28;20045;-73
2022/08/05 02:05:07;;;;;;;6.18;5.43;;;24.00;72.40;;;;;;2105051;28;20020;-73
2022/08/05 02:06:09;;;;;;;6.63;5.78;;;24.00;72.60;;;;;;2104725;28;20077;-73
2022/08/05 02:07:13;;;;;;;5.72;5.30;;;24.00;72.40;;;;;;2095721;28;20075;-73
2022/08/05 02:08:14;;;;;;;6.40;5.70;;;24.00;72.20;;;;;;2095634;28;20121;-73
2022/08/05 02:09:15;;;;;;;5.80;5.30;;;24.00;73.00;;;;;;2104386;28;20016;-73
2022/08/05 02:10:16;;;;;;;6.72;5.55;;;24.00;72.20;;;;;;2104530;28;20138;-72
2022/08/05 02:11:17;;;;;;;6.18;5.13;;;24.00;72.20;;;;;;2110514;28;20039;-71
2022/08/05 02:12:26;;;;;;;5.80;5.30;;;24.00;72.30;;;;;;2104033;28;20072;-71
2022/08/05 02:13:36;;;;;;;6.18;5.57;;;24.00;72.30;;;;;;2106036;28;20053;-71
2022/08/05 02:14:46;;;;;;;6.10;5.40;;;23.90;72.40;;;;;;2113089;28;20076;-72
2022/08/05 02:15:52;;;;;;;6.13;5.63;;;23.90;72.50;;;;;;2112825;28;20637;-71
2022/08/05 02:16:55;;;;;;;5.97;5.45;;;23.90;72.30;;;;;;2112640;28;20023;-71
2022/08/05 02:18:13;;;;;;;8.10;5.47;;;23.90;71.70;;;;;;2110080;28;20042;-73
2022/08/05 02:19:26;;;;;;;5.85;5.35;;;23.90;72.30;;;;;;2105220;28;20028;-73
2022/08/05 02:20:32;;;;;;;6.88;5.53;;;23.90;72.40;;;;;;2096766;28;20683;-72
2022/08/05 02:21:39;;;;;;;6.65;5.95;;;23.90;72.40;;;;;;2097655;28;20021;-73
2022/08/05 02:22:43;;;;;;;6.22;5.63;;;23.90;72.50;;;;;;2106212;28;20032;-73
2022/08/05 02:23:50;;;;;;;6.22;5.63;;;23.90;72.60;;;;;;2105487;28;20443;-73
2022/08/05 02:25:05;;;;;;;6.07;5.47;;;23.80;72.60;;;;;;2095384;28;20033;-72
2022/08/05 02:26:09;;;;;;;5.82;5.32;;;23.80;72.70;;;;;;2095362;28;20036;-72
2022/08/05 02:27:11;;;;;;;6.28;5.78;;;23.80;72.80;;;;;;2095907;28;20027;-73
2022/08/05 02:28:13;;;;;;;6.38;5.78;;;23.80;72.80;;;;;;2104002;28;20110;-73
2022/08/05 02:29:18;;;;;;;7.55;5.80;;;23.80;73.00;;;;;;2104509;28;20456;-73
2022/08/05 02:30:19;;;;;;;6.47;5.82;;;23.80;73.10;;;;;;2104488;28;20428;-73
2022/08/05 02:31:27;;;;;;;6.70;6.10;;;23.70;73.10;;;;;;2104549;28;20516;-72
2022/08/05 02:32:31;;;;;;;6.60;6.00;;;23.80;73.20;;;;;;2104609;28;20040;-73
2022/08/05 02:33:38;;;;;;;6.20;5.60;;;23.70;73.10;;;;;;2104097;28;20055;-72
2022/08/05 02:34:40;;;;;;;6.30;5.80;;;23.70;73.20;;;;;;2104467;28;20426;-72
2022/08/05 02:35:42;;;;;;;6.25;5.70;;;23.70;73.30;;;;;;2095328;28;20568;-72
2022/08/05 02:36:54;;;;;;;7.00;5.80;;;23.70;73.40;;;;;;2095570;28;20017;-73
2022/08/05 02:37:56;;;;;;;6.35;5.75;;;23.70;73.50;;;;;;2104174;28;20028;-73
2022/08/05 02:38:58;;;;;;;6.18;5.55;;;23.70;73.40;;;;;;2095134;28;20076;-73
2022/08/05 02:40:04;;;;;;;6.00;5.32;;;23.60;73.50;;;;;;2095790;28;20020;-73
2022/08/05 02:41:06;;;;;;;6.55;5.95;;;23.60;73.60;;;;;;2104307;28;20084;-73
2022/08/05 02:42:09;;;;;;;6.05;5.50;;;23.60;73.60;;;;;;2104315;28;20055;-72
2022/08/05 02:43:14;;;;;;;6.53;5.93;;;23.60;73.50;;;;;;2104331;28;20686;-73
2022/08/05 02:44:16;;;;;;;6.13;5.53;;;23.60;73.50;;;;;;2095429;28;20036;-73
2022/08/05 02:45:18;;;;;;;6.40;5.80;;;23.60;73.70;;;;;;2095435;28;20043;-72
2022/08/05 02:46:20;;;;;;;8.88;5.78;;;23.60;73.60;;;;;;2104304;28;20032;-73
2022/08/05 02:47:22;;;;;;;6.80;6.20;;;23.60;73.50;;;;;;2104553;28;20059;-73
2022/08/05 02:48:24;;;;;;;8.48;7.68;;;23.60;73.60;;;;;;2104391;28;20105;-72
2022/08/05 02:49:28;;;;;;;8.73;7.95;;;23.60;73.50;;;;;;2095728;28;20159;-72
2022/08/05 02:50:29;;;;;;;8.15;7.45;;;23.60;73.40;;;;;;2096190;28;20063;-70
2022/08/05 02:51:30;;;;;;;8.00;7.20;;;23.60;73.40;;;;;;2104651;28;20440;-72
2022/08/05 02:52:32;;;;;;;8.10;7.30;;;23.60;73.50;;;;;;2104571;28;20036;-73
2022/08/05 02:53:33;;;;;;;7.43;6.72;;;23.60;73.60;;;;;;2095689;28;20032;-72
2022/08/05 02:54:37;;;;;;;7.40;6.70;;;23.60;73.70;;;;;;2095892;28;20040;-72
2022/08/05 02:55:38;;;;;;;6.95;6.35;;;23.60;73.70;;;;;;2104428;28;20375;-72
2022/08/05 02:56:41;;;;;;;8.27;6.53;;;23.50;73.50;;;;;;2104599;28;20086;-73
2022/08/05 02:57:44;;;;;;;7.60;6.88;;;23.50;73.30;;;;;;2105610;28;20032;-72
2022/08/05 02:58:45;;;;;;;7.57;6.50;;;23.50;73.30;;;;;;2105908;28;20043;-73
2022/08/05 02:59:48;;;;;;;6.90;6.20;;;23.50;73.40;;;;;;2106076;28;20558;-73
2022/08/05 03:00:51;;;;;;;6.88;6.18;;;23.50;73.40;;;;;;2106170;28;20036;-73
2022/08/05 03:01:56;;;;;;;6.72;6.10;;;23.50;73.40;;;;;;2106188;28;20565;-72
2022/08/05 03:02:58;;;;;;;6.80;6.15;;;23.50;73.40;;;;;;2106063;28;20097;-73
2022/08/05 03:04:02;;;;;;;7.00;6.00;;;23.50;73.40;;;;;;2105958;28;20027;-71
2022/08/05 03:05:05;;;;;;;7.97;5.93;;;23.50;73.60;;;;;;2106433;28;20083;-73
2022/08/05 03:06:09;;;;;;;6.60;5.90;;;23.50;73.80;;;;;;2106290;28;20028;-71
2022/08/05 03:07:11;;;;;;;6.30;5.70;;;23.50;73.80;;;;;;2106211;28;20024;-73
2022/08/05 03:08:13;;;;;;;6.85;5.93;;;23.50;73.80;;;;;;2105782;28;20466;-73
2022/08/05 03:09:14;;;;;;;6.30;5.70;;;23.50;73.80;;;;;;2106088;28;20042;-73
2022/08/05 03:10:16;;;;;;;7.40;6.32;;;23.50;73.80;;;;;;2105998;28;20052;-73
2022/08/05 03:11:24;;;;;;;6.45;5.85;;;23.40;73.90;;;;;;2107168;28;20028;-73
2022/08/05 03:12:36;;;;;;;6.38;5.78;;;23.40;73.80;;;;;;2106289;28;20288;-72
2022/08/05 03:13:38;;;;;;;6.80;6.13;;;23.40;73.90;;;;;;2106816;28;20031;-72
2022/08/05 03:14:39;;;;;;;7.95;6.10;;;23.40;73.90;;;;;;2106620;28;20044;-72
2022/08/05 03:15:44;;;;;;;8.20;6.28;;;23.40;74.00;;;;;;2106498;28;20027;-72
2022/08/05 03:16:45;;;;;;;7.00;6.30;;;23.40;74.00;;;;;;2106477;28;20526;-73
2022/08/05 03:17:45;;;;;;;6.70;6.10;;;23.40;74.00;;;;;;2097115;28;20115;-73
2022/08/05 03:18:46;;;;;;;7.30;6.05;;;23.40;73.90;;;;;;2097031;28;20032;-74
2022/08/05 03:19:47;;;;;;;7.18;6.13;;;23.40;73.60;;;;;;2106102;28;20089;-71
2022/08/05 03:20:48;;;;;;;7.15;6.45;;;23.40;73.70;;;;;;2105962;28;20035;-72
2022/08/05 03:21:48;;;;;;;6.72;6.13;;;23.40;73.60;;;;;;2106084;28;20036;-73
2022/08/05 03:22:49;;;;;;;7.43;6.05;;;23.40;73.50;;;;;;2106089;28;20024;-72
2022/08/05 03:23:50;;;;;;;6.60;6.00;;;23.40;73.30;;;;;;2106052;28;20047;-72
2022/08/05 03:24:52;;;;;;;6.55;5.60;;;23.40;73.30;;;;;;2096994;28;20090;-73
2022/08/05 03:25:53;;;;;;;6.40;5.80;;;23.40;73.20;;;;;;2088705;28;20044;-73
2022/08/05 03:26:54;;;;;;;6.72;6.10;;;23.40;73.20;;;;;;2097642;28;20082;-73
2022/08/05 03:27:56;;;;;;;6.70;6.07;;;23.40;73.20;;;;;;2097407;28;20109;-72
2022/08/05 03:28:57;;;;;;;9.90;6.60;;;23.40;73.50;;;;;;2097301;28;20098;-73
2022/08/05 03:29:57;;;;;;;7.28;6.57;;;23.40;74.20;;;;;;2106041;28;20028;-72
2022/08/05 03:31:00;;;;;;;7.75;7.00;;;23.40;74.40;;;;;;2106271;28;20028;-74
2022/08/05 03:32:02;;;;;;;7.35;6.65;;;23.50;76.20;;;;;;2105901;28;20046;-72
2022/08/05 03:33:05;;;;;;;7.07;6.10;;;23.50;75.80;;;;;;2105910;28;20058;-71
2022/08/05 03:34:06;;;;;;;8.38;6.65;;;23.50;76.10;;;;;;2088559;28;20104;-72
2022/08/05 03:35:07;;;;;;;7.68;6.60;;;23.50;76.80;;;;;;2088605;28;20495;-73
2022/08/05 03:36:09;;;;;;;8.18;6.25;;;23.50;78.00;;;;;;2105595;28;20054;-73
2022/08/05 03:37:10;;;;;;;6.47;5.88;;;23.50;77.00;;;;;;2096695;28;20032;-73
2022/08/05 03:38:11;;;;;;;8.02;6.45;;;23.50;76.70;;;;;;2096566;28;20763;-73
2022/08/05 03:39:12;;;;;;;8.18;6.32;;;23.50;76.20;;;;;;2105915;28;20012;-73
2022/08/05 03:40:13;;;;;;;6.80;6.07;;;23.50;75.90;;;;;;2105848;28;20776;-73
2022/08/05 03:41:15;;;;;;;7.80;6.53;;;23.50;76.00;;;;;;2105873;28;20029;-73
2022/08/05 03:42:16;;;;;;;6.50;5.90;;;23.60;76.50;;;;;;2105955;28;20024;-73
2022/08/05 03:43:17;;;;;;;7.78;6.35;;;23.50;76.50;;;;;;2097060;28;20501;-73
2022/08/05 03:44:17;;;;;;;6.88;6.25;;;23.60;76.60;;;;;;2097209;28;20119;-73
2022/08/05 03:45:18;;;;;;;8.98;6.28;;;23.50;75.90;;;;;;2105916;28;20111;-73
2022/08/05 03:46:19;;;;;;;9.70;6.85;;;23.60;75.50;;;;;;2105778;28;20493;-73
2022/08/05 03:47:20;;;;;;;8.52;6.57;;;23.50;74.80;;;;;;2106087;28;20062;-73
2022/08/05 03:48:20;;;;;;;8.18;6.68;;;23.60;74.50;;;;;;2105412;28;20028;-75
2022/08/05 03:49:21;;;;;;;7.40;6.72;;;23.50;74.30;;;;;;2105798;28;20519;-73
2022/08/05 03:50:22;;;;;;;8.10;6.85;;;23.50;74.30;;;;;;2105770;28;20082;-73
2022/08/05 03:51:34;;;;;;;8.10;7.30;;;23.50;74.30;;;;;;2108378;28;20057;-73
2022/08/05 03:52:42;;;;;;;7.57;6.80;;;23.50;74.50;;;;;;2108776;28;20100;-74
2022/08/05 03:54:05;;;;;;;7.05;6.40;;;23.50;75.10;;;;;;2105866;28;20042;-71
2022/08/05 03:55:10;;;;;;;7.28;6.55;;;23.50;74.90;;;;;;2105978;28;20053;-72
2022/08/05 03:56:41;;;;;;;7.35;6.63;;;23.50;75.00;;;;;;2096675;28;20024;-71
2022/08/05 03:57:44;;;;;;;9.07;6.72;;;23.50;74.60;;;;;;2088656;28;20028;-71
2022/08/05 03:58:46;;;;;;;7.78;6.97;;;23.50;74.60;;;;;;2105463;28;20032;-71
2022/08/05 03:59:57;;;;;;;9.82;7.20;;;23.50;74.50;;;;;;2105402;28;20035;-71
2022/08/05 04:01:00;;;;;;;;;;;23.50;74.60;;;;;;2106032;28;20135;-71
2022/08/05 04:02:02;;;;;;;7.63;6.78;;;23.50;74.50;;;;;;2105656;28;19904;-71
2022/08/05 04:03:06;;;;;;;7.25;6.55;;;23.50;74.60;;;;;;2105570;28;20024;-73
2022/08/05 04:04:09;;;;;;;7.60;6.80;;;23.50;74.80;;;;;;2105768;28;20470;-74
2022/08/05 04:05:11;;;;;;;6.90;6.25;;;23.50;74.80;;;;;;2105457;28;20107;-73
2022/08/05 04:06:12;;;;;;;7.20;6.50;;;23.50;75.40;;;;;;2105611;28;20096;-73
2022/08/05 04:07:14;;;;;;;7.43;6.70;;;23.50;75.10;;;;;;2105577;28;20049;-72
2022/08/05 04:08:15;;;;;;;8.13;6.75;;;23.50;75.10;;;;;;2105121;28;20513;-73
2022/08/05 04:09:17;;;;;;;7.15;6.47;;;23.50;75.00;;;;;;2104795;28;20474;-73
2022/08/05 04:10:18;;;;;;;8.80;7.13;;;23.50;74.90;;;;;;2105871;28;20032;-72
2022/08/05 04:11:19;;;;;;;9.48;7.18;;;23.50;74.80;;;;;;2105993;28;20084;-74
2022/08/05 04:12:21;;;;;;;10.30;7.10;;;23.50;74.80;;;;;;2105665;28;20448;-72
2022/08/05 04:13:22;;;;;;;7.80;7.00;;;23.50;74.90;;;;;;2105782;28;20055;-72
2022/08/05 04:14:27;;;;;;;8.40;7.20;;;23.50;74.80;;;;;;2105541;28;20101;-72
2022/08/05 04:15:27;;;;;;;7.97;6.45;;;23.50;74.80;;;;;;2105550;28;20565;-71
2022/08/05 04:16:28;;;;;;;8.77;6.72;;;23.50;74.80;;;;;;2105295;28;20036;-71
2022/08/05 04:17:29;;;;;;;7.63;6.35;;;23.60;74.70;;;;;;2105275;28;20617;-72
2022/08/05 04:18:30;;;;;;;7.57;6.68;;;23.60;74.70;;;;;;2105486;28;20059;-72
2022/08/05 04:19:44;;;;;;;11.60;6.90;;;23.60;74.60;;;;;;2096328;28;20050;-71
2022/08/05 04:20:52;;;;;;;7.88;6.70;;;23.60;74.60;;;;;;2098507;28;20040;-73
2022/08/05 04:21:53;;;;;;;8.05;6.70;;;23.60;74.60;;;;;;2105502;28;20036;-72
2022/08/05 04:22:53;;;;;;;7.65;6.80;;;23.60;74.60;;;;;;2105413;28;20035;-72
2022/08/05 04:23:54;;;;;;;7.95;6.88;;;23.70;74.50;;;;;;2105429;28;20020;-72
2022/08/05 04:24:55;;;;;;;8.48;7.68;;;23.80;74.10;;;;;;2105536;28;20028;-74
2022/08/05 04:25:56;;;;;;;9.15;7.05;;;24.00;73.80;;;;;;2096504;28;20067;-72
2022/08/05 04:26:56;;;;;;;6.97;6.38;;;24.10;73.40;;;;;;2096338;28;20025;-71
2022/08/05 04:27:57;;;;;;;7.10;6.40;;;24.30;73.00;;;;;;2104850;28;20643;-71
2022/08/05 04:28:58;;;;;;;7.03;6.32;;;24.40;72.50;;;;;;2105480;28;20024;-71
2022/08/05 04:29:58;;;;;;;8.18;6.40;;;24.40;72.30;;;;;;2105500;28;20528;-72
2022/08/05 04:30:59;;;;;;;8.68;6.75;;;24.50;72.70;;;;;;2105809;28;20028;-73
2022/08/05 04:32:00;;;;;;;7.93;6.85;;;24.70;73.50;;;;;;2105575;28;20035;-72
2022/08/05 04:33:01;;;;;;;10.32;6.72;;;24.80;73.70;;;;;;2105428;28;20481;-71
2022/08/05 04:34:02;;;;;;;10.20;6.47;;;25.00;73.30;;;;;;2105598;28;20372;-72
2022/08/05 04:35:03;;;;;;;7.65;6.40;;;25.30;72.30;;;;;;2096485;28;20043;-72
2022/08/05 04:36:04;;;;;;;7.22;6.43;;;25.60;71.00;;;;;;2096439;28;20036;-71
2022/08/05 04:37:04;;;;;;;6.72;6.13;;;25.80;70.10;;;;;;2096493;28;20028;-72
2022/08/05 04:38:05;;;;;;;9.00;6.80;;;26.10;69.30;;;;;;2096197;28;20052;-72
2022/08/05 04:39:06;;;;;;;10.23;6.55;;;26.30;68.30;;;;;;2096748;28;20028;-71
2022/08/05 04:40:07;;;;;;;7.95;6.32;;;26.50;67.60;;;;;;2097133;28;20474;-73
2022/08/05 04:41:08;;;;;;;7.47;6.28;;;26.80;67.00;;;;;;2107045;28;20019;-73
2022/08/05 04:42:08;;;;;;;8.23;6.22;;;26.90;66.40;;;;;;2097734;28;20055;-73
2022/08/05 04:43:09;;;;;;;7.18;6.18;;;27.10;65.90;;;;;;2098048;28;20060;-73
2022/08/05 04:44:10;;;;;;;9.20;6.80;;;27.30;65.30;;;;;;2106845;28;20095;-73
2022/08/05 04:45:10;;;;;;;8.55;6.28;;;27.40;64.80;;;;;;2107185;28;20578;-73
2022/08/05 04:46:11;;;;;;;9.32;6.38;;;27.50;64.60;;;;;;2106741;28;20047;-73
2022/08/05 04:47:12;;;;;;;6.88;6.18;;;27.70;64.80;;;;;;2106890;28;20024;-72
2022/08/05 04:48:13;;;;;;;7.57;6.20;;;27.80;63.50;;;;;;2097739;28;20033;-73
2022/08/05 04:49:14;;;;;;;7.28;6.07;;;27.90;63.00;;;;;;2098430;28;20406;-73
2022/08/05 04:50:15;;;;;;;8.50;6.07;;;28.00;62.60;;;;;;2107313;28;20062;-73
2022/08/05 04:51:16;;;;;;;10.15;7.00;;;28.10;62.20;;;;;;2107134;28;20028;-72
2022/08/05 04:52:17;;;;;;;7.28;6.15;;;28.10;61.30;;;;;;2106967;28;20620;-73
2022/08/05 04:53:18;;;;;;;8.93;6.53;;;28.20;60.90;;;;;;2107395;28;20024;-73
2022/08/05 04:54:18;;;;;;;8.00;6.10;;;28.30;60.70;;;;;;2089745;28;20381;-74
2022/08/05 04:55:19;;;;;;;7.68;6.10;;;28.40;60.60;;;;;;2090025;28;20079;-73
2022/08/05 04:56:20;;;;;;;10.25;5.75;;;28.50;60.70;;;;;;2107296;28;20032;-72
2022/08/05 04:57:20;;;;;;;7.60;6.50;;;28.60;60.60;;;;;;2106909;28;20028;-72
2022/08/05 04:58:21;;;;;;;9.73;6.00;;;28.70;60.20;;;;;;2106018;28;20121;-73
2022/08/05 04:59:21;;;;;;;7.45;6.10;;;28.80;59.80;;;;;;2106393;28;20020;-72
2022/08/05 05:00:22;;;;;;;6.88;6.18;;;28.90;59.50;;;;;;2105312;28;20380;-74
2022/08/05 05:01:23;;;;;;;7.45;6.03;;;28.90;59.30;;;;;;2104982;28;20694;-72
2022/08/05 05:02:24;;;;;;;8.38;6.00;;;29.00;59.30;;;;;;2105104;28;20024;-72
2022/08/05 05:03:25;;;;;;;8.65;6.18;;;29.10;59.20;;;;;;2105159;28;20024;-75
2022/08/05 05:04:25;;;;;;;8.80;5.85;;;29.20;58.80;;;;;;2105307;28;20542;-73
2022/08/05 05:05:26;;;;;;;7.03;6.00;;;29.30;58.70;;;;;;2105200;28;20078;-73
2022/08/05 05:06:27;;;;;;;6.60;5.90;;;29.30;58.50;;;;;;2105224;28;20123;-73
2022/08/05 05:07:28;;;;;;;8.43;5.93;;;29.40;58.50;;;;;;2104981;28;20028;-73
2022/08/05 05:08:28;;;;;;;8.23;6.25;;;29.50;58.20;;;;;;2105090;28;20032;-74
2022/08/05 05:09:29;;;;;;;8.93;5.90;;;29.60;58.10;;;;;;2105206;28;20074;-74
2022/08/05 05:10:31;;;;;;;9.63;6.10;;;29.60;57.60;;;;;;2104963;28;20043;-73
2022/08/05 05:11:32;;;;;;;8.43;6.20;;;29.60;57.10;;;;;;2105266;28;20035;-73
2022/08/05 05:12:32;;;;;;;10.98;6.55;;;29.70;57.00;;;;;;2105239;28;20047;-73
2022/08/05 05:13:33;;;;;;;10.98;5.90;;;29.50;56.80;;;;;;2106212;28;20415;-73
2022/08/05 05:14:34;;;;;;;7.53;5.78;;;29.60;56.90;;;;;;2106284;28;20046;-75
2022/08/05 05:15:35;;;;;;;11.80;5.90;;;29.60;56.80;;;;;;2096982;28;20041;-74
2022/08/05 05:16:35;;;;;;;11.57;5.95;;;29.70;56.70;;;;;;2088168;28;20025;-75
2022/08/05 05:17:38;;;;;;;9.73;5.95;;;29.90;56.60;;;;;;2096087;28;20036;-75
2022/08/05 05:18:38;;;;;;;8.20;5.90;;;29.90;56.40;;;;;;2105045;28;20036;-76
2022/08/05 05:19:40;;;;;;;10.35;6.15;;;29.90;56.20;;;;;;2096008;28;20470;-72
2022/08/05 05:20:45;;;;;;;7.13;5.93;;;30.10;56.10;;;;;;2096785;28;20040;-74
2022/08/05 05:21:45;;;;;;;9.40;6.05;;;30.10;55.90;;;;;;2105379;28;20397;-74
2022/08/05 05:22:46;;;;;;;10.80;6.43;;;30.10;55.80;;;;;;2105085;28;20028;-74
2022/08/05 05:23:47;;;;;;;10.45;6.13;;;30.10;55.60;;;;;;2106081;28;20024;-77
2022/08/05 05:24:47;;;;;;;9.88;6.05;;;30.10;55.50;;;;;;2105699;28;20391;-77
2022/08/05 05:25:48;;;;;;;7.05;5.90;;;30.00;56.10;;;;;;2105260;28;20115;-76
2022/08/05 05:26:49;;;;;;;8.82;6.18;;;30.00;55.40;;;;;;2105364;28;20040;-76
2022/08/05 05:27:51;;;;;;;6.90;5.80;;;30.00;55.00;;;;;;2104728;28;20020;-75
2022/08/05 05:28:52;;;;;;;8.20;6.00;;;29.80;55.20;;;;;;2095965;28;20115;-75